Time;durP1;ratioP1;P1;durP2;ratioP2;P2;SDS_P1;SDS_P2;PMS_P1;PMS_P2;Temp;Humidity;BMP_temperature;BMP_pressure;BME280_temperature;BME280_humidity;BME280_pressure;Samples;Min_cycle;Max_cycle;Signal;HPM_P1;HPM_P2
2023/03/06 00:01:02;;;;;;;1.83;1.08;;;;;;;1.45;77.51;100746.41;7397027;19;20010;-58
2023/03/06 00:03:28;;;;;;;2.72;1.20;;;;;;;1.45;77.18;100762.09;7396793;19;20014;-58
2023/03/06 00:05:55;;;;;;;2.65;1.38;;;;;;;1.34;77.72;100751.25;7395605;19;19991;-57
2023/03/06 00:08:21;;;;;;;3.15;1.23;;;;;;;1.33;78.12;100757.41;7395499;19;20005;-57
2023/03/06 00:10:47;;;;;;;2.72;1.50;;;;;;;1.40;77.91;100751.00;7396392;19;20324;-56
2023/03/06 00:13:14;;;;;;;2.63;1.30;;;;;;;1.47;77.58;100735.84;7396838;19;19991;-57
2023/03/06 00:15:41;;;;;;;3.60;1.60;;;;;;;1.58;77.09;100742.31;7396089;19;20001;-57
2023/03/06 00:18:07;;;;;;;2.67;1.50;;;;;;;1.36;77.81;100747.66;7393551;19;20003;-57
2023/03/06 00:20:34;;;;;;;3.95;1.80;;;;;;;1.40;77.79;100733.53;7394808;19;20328;-58
2023/03/06 00:22:59;;;;;;;3.60;1.58;;;;;;;1.37;77.88;100730.19;7396335;19;20018;-57
2023/03/06 00:25:25;;;;;;;3.53;1.67;;;;;;;1.40;77.63;100733.53;7395853;19;20487;-58
2023/03/06 00:27:51;;;;;;;4.03;1.70;;;;;;;1.30;77.89;100734.00;7394771;19;20015;-59
2023/03/06 00:30:20;;;;;;;3.45;1.80;;;;;;;1.18;78.41;100738.00;7395015;19;20345;-58
2023/03/06 00:32:46;;;;;;;3.25;1.67;;;;;;;1.12;78.88;100731.25;7396313;19;20126;-58
2023/03/06 00:35:13;;;;;;;3.55;1.75;;;;;;;1.42;78.23;100733.44;7394273;19;20006;-56
2023/03/06 00:37:39;;;;;;;3.00;1.40;;;;;;;1.47;77.62;100736.69;7395458;19;19991;-57
2023/03/06 00:40:06;;;;;;;2.80;1.50;;;;;;;1.52;77.26;100724.28;7395491;19;20009;-59
2023/03/06 00:42:32;;;;;;;2.10;1.30;;;;;;;1.55;77.06;100732.00;7393673;19;20006;-59
2023/03/06 00:44:57;;;;;;;3.30;1.60;;;;;;;1.54;76.81;100740.75;7395000;19;20344;-56
2023/03/06 00:47:23;;;;;;;2.47;1.20;;;;;;;1.33;77.26;100734.72;7393196;19;20481;-56
2023/03/06 00:49:49;;;;;;;3.40;1.70;;;;;;;1.20;78.25;100748.38;7394886;19;19994;-56
2023/03/06 00:52:14;;;;;;;3.65;1.70;;;;;;;1.11;78.65;100752.25;7395087;19;20026;-57
2023/03/06 00:54:40;;;;;;;2.80;1.50;;;;;;;1.01;79.09;100748.31;7394837;19;20562;-57
2023/03/06 00:57:05;;;;;;;4.82;2.13;;;;;;;1.06;79.36;100749.84;7395000;19;20484;-57
2023/03/06 00:59:31;;;;;;;4.25;1.90;;;;;;;1.17;78.71;100752.00;7392932;19;20001;-57
2023/03/06 01:01:56;;;;;;;4.65;2.30;;;;;;;1.32;78.38;100753.06;7394343;19;20462;-58
2023/03/06 01:04:22;;;;;;;4.15;2.10;;;;;;;1.38;77.75;100737.97;7393842;19;20001;-57
2023/03/06 01:06:48;;;;;;;4.28;1.63;;;;;;;1.40;77.63;100738.75;7393932;19;20012;-58
2023/03/06 01:09:14;;;;;;;3.47;1.80;;;;;;;1.29;78.04;100743.63;7393072;19;19994;-56
2023/03/06 01:11:39;;;;;;;4.13;1.85;;;;;;;1.29;77.85;100737.53;7394640;19;20289;-57
2023/03/06 01:14:04;;;;;;;3.00;1.50;;;;;;;1.21;78.22;100737.88;7392210;19;20010;-57
2023/03/06 01:16:30;;;;;;;3.53;1.40;;;;;;;1.21;78.17;100732.63;7391756;19;20031;-56
2023/03/06 01:18:56;;;;;;;2.92;1.48;;;;;;;1.35;77.94;100724.16;7389997;19;19994;-56
2023/03/06 01:21:21;;;;;;;3.08;1.30;;;;;;;1.28;77.51;100718.38;7392232;19;20497;-57
2023/03/06 01:23:47;;;;;;;2.58;1.27;;;;;;;1.27;78.00;100706.19;7391992;19;20002;-56
2023/03/06 01:26:13;;;;;;;2.72;1.02;;;;;;;1.43;77.47;100701.09;7389453;19;19990;-56
2023/03/06 01:28:39;;;;;;;2.15;0.85;;;;;;;1.55;76.47;100703.19;7390185;19;20015;-56
2023/03/06 01:31:06;;;;;;;2.72;0.98;;;;;;;1.56;76.55;100698.81;7391482;19;20002;-56
2023/03/06 01:33:32;;;;;;;1.45;0.70;;;;;;;1.53;76.74;100704.19;7390091;19;20077;-56
2023/03/06 01:35:58;;;;;;;2.55;0.95;;;;;;;1.20;77.79;100719.59;7391591;19;19998;-58
2023/03/06 01:38:24;;;;;;;2.10;1.00;;;;;;;1.23;78.01;100701.16;7389397;19;20031;-59
2023/03/06 01:40:49;;;;;;;3.00;0.88;;;;;;;1.28;77.74;100712.25;7391829;19;19995;-58
2023/03/06 01:43:27;;;;;;;2.58;0.80;;;;;;;1.15;77.82;100694.50;7389314;19;20044;-59
2023/03/06 01:46:16;;;;;;;1.52;0.75;;;;;;;1.26;77.46;100690.56;7390955;19;20015;-58
2023/03/06 01:48:43;;;;;;;1.10;0.50;;;;;;;1.21;77.64;100687.31;7390592;19;20023;-56
2023/03/06 01:51:10;;;;;;;1.20;0.73;;;;;;;1.25;77.41;100681.03;7391310;19;20002;-58
2023/03/06 01:53:36;;;;;;;1.17;0.60;;;;;;;1.14;77.87;100673.66;7389085;19;19999;-57
2023/03/06 01:56:02;;;;;;;2.35;0.70;;;;;;;1.11;77.76;100682.47;7388233;19;20009;-56
2023/03/06 01:58:27;;;;;;;1.70;0.80;;;;;;;1.01;78.36;100678.53;7389898;19;19999;-56
2023/03/06 02:00:53;;;;;;;4.85;0.80;;;;;;;1.09;78.10;100678.22;7390383;19;20040;-57
2023/03/06 02:03:23;;;;;;;1.73;0.68;;;;;;;1.14;78.13;100677.09;7386772;19;19987;-58
2023/03/06 02:05:50;;;;;;;1.75;0.88;;;;;;;1.20;77.93;100656.81;7388867;19;20019;-60
2023/03/06 02:08:18;;;;;;;2.92;0.75;;;;;;;1.18;78.12;100649.03;7387142;19;20002;-57
2023/03/06 02:11:13;;;;;;;2.25;0.95;;;;;;;0.97;78.74;100632.50;7388974;19;20107;-58
2023/03/06 02:13:39;;;;;;;1.98;0.80;;;;;;;1.15;77.95;100644.78;7389597;19;19994;-58
2023/03/06 02:16:07;;;;;;;1.60;0.77;;;;;;;1.01;78.73;100651.53;7389401;19;19995;-58
2023/03/06 02:18:34;;;;;;;3.30;1.00;;;;;;;0.88;79.11;100670.38;7389200;19;20006;-58
2023/03/06 02:21:04;;;;;;;3.10;1.30;;;;;;;0.99;79.37;100658.63;7390598;19;20013;-58
2023/03/06 02:23:48;;;;;;;3.28;1.10;;;;;;;1.10;78.31;100657.22;7390452;19;20003;-58
2023/03/06 02:26:14;;;;;;;2.08;0.90;;;;;;;0.99;78.51;100661.25;7390309;19;20007;-59
2023/03/06 02:28:40;;;;;;;2.78;1.10;;;;;;;1.03;78.70;100657.56;7388172;19;20078;-58
2023/03/06 02:31:07;;;;;;;3.75;1.08;;;;;;;1.06;78.12;100652.22;7390370;19;20014;-58
2023/03/06 02:33:32;;;;;;;2.28;1.30;;;;;;;0.87;79.05;100628.63;7390330;19;20066;-59
2023/03/06 02:36:04;;;;;;;4.47;1.60;;;;;;;1.00;78.85;100635.00;7387797;19;20012;-58
2023/03/06 02:38:35;;;;;;;2.58;1.27;;;;;;;0.97;78.81;100642.13;7388420;19;20010;-58
2023/03/06 02:41:03;;;;;;;2.15;1.10;;;;;;;1.04;79.11;100640.94;7390715;19;20026;-59
2023/03/06 02:43:33;;;;;;;4.97;1.10;;;;;;;1.21;78.39;100645.44;7391584;19;20002;-58
2023/03/06 02:45:58;;;;;;;2.53;1.25;;;;;;;1.04;78.31;100649.63;7394608;19;20012;-58
2023/03/06 02:48:24;;;;;;;2.35;1.10;;;;;;;1.18;78.54;100649.88;7395786;19;19995;-58
2023/03/06 02:50:49;;;;;;;6.78;2.47;;;;;;;1.25;77.91;100639.16;7397104;19;20028;-58
2023/03/06 02:53:18;;;;;;;4.95;2.30;;;;;;;1.14;78.07;100637.88;7397130;19;20111;-58
2023/03/06 02:55:43;;;;;;;7.72;2.92;;;;;;;1.12;78.20;100631.00;7396565;19;20097;-58
2023/03/06 02:58:09;;;;;;;8.73;3.30;;;;;;;0.94;78.71;100637.91;7395257;19;20677;-57
2023/03/06 03:00:35;;;;;;;8.18;3.13;;;;;;;0.87;79.06;100634.72;7396499;19;20017;-57
2023/03/06 03:03:01;;;;;;;5.13;2.40;;;;;;;0.92;79.10;100631.88;7396719;19;20327;-57
2023/03/06 03:05:26;;;;;;;3.33;1.55;;;;;;;1.07;78.93;100631.19;7396234;19;20091;-58
2023/03/06 03:07:52;;;;;;;3.88;1.80;;;;;;;1.10;78.35;100612.75;7395759;19;20010;-57
2023/03/06 03:10:17;;;;;;;4.95;2.20;;;;;;;1.24;78.10;100612.13;7396417;19;20307;-57
2023/03/06 03:12:43;;;;;;;4.82;2.10;;;;;;;1.07;78.49;100619.91;7396919;19;20133;-57
2023/03/06 03:15:15;;;;;;;6.13;2.35;;;;;;;1.03;78.82;100615.72;7395171;19;20015;-57
2023/03/06 03:17:41;;;;;;;5.28;2.00;;;;;;;0.99;78.94;100611.53;7395219;19;20046;-57
2023/03/06 03:20:13;;;;;;;7.13;2.47;;;;;;;1.03;79.06;100602.63;7395852;19;20002;-57
2023/03/06 03:22:39;;;;;;;4.82;2.15;;;;;;;0.98;78.99;100600.25;7395501;19;19998;-58
2023/03/06 03:25:05;;;;;;;7.00;2.70;;;;;;;0.88;79.30;100601.56;7395304;19;20034;-58
2023/03/06 03:27:31;;;;;;;7.03;2.05;;;;;;;0.91;79.04;100597.03;7395773;19;20018;-58
2023/03/06 03:29:57;;;;;;;4.68;2.15;;;;;;;0.95;78.99;100594.28;7393636;19;20494;-59
2023/03/06 03:32:23;;;;;;;7.03;2.38;;;;;;;0.98;78.76;100599.34;7395594;19;20534;-58
2023/03/06 03:34:48;;;;;;;5.07;1.70;;;;;;;1.00;78.73;100594.94;7394516;19;19999;-59
2023/03/06 03:37:14;;;;;;;6.35;1.45;;;;;;;0.95;78.13;100594.28;7395876;19;20070;-57
2023/03/06 03:39:40;;;;;;;3.17;1.42;;;;;;;0.82;78.77;100594.81;7395562;19;20758;-58
2023/03/06 03:42:05;;;;;;;6.65;1.75;;;;;;;0.72;78.93;100593.53;7395144;19;20293;-58
2023/03/06 03:44:31;;;;;;;4.93;2.15;;;;;;;0.80;79.25;100596.66;7395009;19;20375;-59
2023/03/06 03:46:56;;;;;;;6.13;2.50;;;;;;;0.82;79.00;100583.50;7395211;19;20308;-59
2023/03/06 03:49:22;;;;;;;5.57;2.70;;;;;;;0.78;79.53;100581.94;7393200;19;19999;-59
2023/03/06 03:51:47;;;;;;;7.00;3.00;;;;;;;0.82;79.58;100575.66;7394655;19;20474;-58
2023/03/06 03:54:12;;;;;;;6.38;2.90;;;;;;;0.82;79.48;100576.50;7394302;19;20704;-58
2023/03/06 03:56:39;;;;;;;7.47;2.83;;;;;;;0.69;79.84;100581.44;7392541;19;20335;-59
2023/03/06 03:59:05;;;;;;;7.15;2.97;;;;;;;1.01;78.97;100573.06;7392866;19;20098;-58
2023/03/06 04:01:31;;;;;;;5.45;2.65;;;;;;;1.23;78.63;100575.56;7394837;19;20396;-59
2023/03/06 04:03:56;;;;;;;9.15;3.40;;;;;;;1.22;77.69;100569.50;7394756;19;19994;-59
2023/03/06 04:06:22;;;;;;;4.63;2.20;;;;;;;0.69;79.61;100571.00;7394179;19;20494;-59
2023/03/06 04:08:47;;;;;;;6.38;2.10;;;;;;;0.67;80.03;100566.72;7392663;19;20006;-59
2023/03/06 04:11:13;;;;;;;5.35;2.20;;;;;;;0.66;80.28;100565.88;7393906;19;19995;-58
2023/03/06 04:13:39;;;;;;;7.70;2.28;;;;;;;0.66;80.06;100563.28;7394533;19;20019;-58
2023/03/06 04:16:05;;;;;;;7.90;2.50;;;;;;;0.39;81.57;100567.94;7393418;19;20338;-58
2023/03/06 04:18:30;;;;;;;5.80;2.80;;;;;;;0.49;81.55;100564.94;7392690;19;20033;-58
2023/03/06 04:20:56;;;;;;;6.53;2.80;;;;;;;0.66;80.87;100563.28;7394022;19;20002;-58
2023/03/06 04:23:23;;;;;;;6.78;2.67;;;;;;;0.75;79.91;100556.81;7393610;19;20020;-58
2023/03/06 04:25:49;;;;;;;5.95;2.58;;;;;;;0.82;79.44;100560.81;7393241;19;20384;-58
2023/03/06 04:28:15;;;;;;;5.90;2.55;;;;;;;0.87;79.39;100560.63;7392899;19;20008;-59
2023/03/06 04:30:40;;;;;;;7.00;2.42;;;;;;;0.84;79.81;100547.69;7393956;19;19990;-58
2023/03/06 04:33:06;;;;;;;6.15;3.22;;;;;;;0.84;79.79;100547.69;7393738;19;19994;-59
2023/03/06 04:35:32;;;;;;;6.22;2.92;;;;;;;0.87;79.61;100544.94;7393234;19;20005;-59
2023/03/06 04:37:57;;;;;;;6.22;3.20;;;;;;;0.95;79.01;100549.84;7393032;19;20555;-57
2023/03/06 04:40:27;;;;;;;7.35;2.83;;;;;;;0.90;79.13;100547.41;7393104;19;20037;-58
2023/03/06 04:42:53;;;;;;;5.28;2.30;;;;;;;0.91;79.60;100551.75;7394251;19;20015;-58
2023/03/06 04:45:19;;;;;;;6.50;2.42;;;;;;;0.96;79.02;100552.38;7392692;19;20062;-59
2023/03/06 04:47:44;;;;;;;5.75;2.53;;;;;;;0.98;79.01;100545.31;7392142;19;20450;-56
2023/03/06 04:50:10;;;;;;;6.43;2.38;;;;;;;1.09;78.56;100542.19;7393003;19;19995;-57
2023/03/06 04:52:36;;;;;;;7.38;2.85;;;;;;;1.12;78.57;100535.03;7393152;19;20036;-57
2023/03/06 04:55:07;;;;;;;7.82;3.08;;;;;;;1.12;78.34;100536.81;7392066;19;19994;-58
2023/03/06 04:57:37;;;;;;;7.93;3.35;;;;;;;1.12;78.51;100536.81;7392480;19;19998;-58
2023/03/06 05:00:05;;;;;;;7.20;2.85;;;;;;;1.13;78.15;100523.69;7391184;19;19997;-57
2023/03/06 05:02:32;;;;;;;5.72;2.47;;;;;;;1.12;78.29;100528.97;7392184;19;20015;-57
2023/03/06 05:04:57;;;;;;;7.90;3.47;;;;;;;1.06;78.39;100522.25;7390472;19;19990;-57
2023/03/06 05:07:23;;;;;;;7.30;2.85;;;;;;;1.04;78.80;100526.69;7390660;19;20408;-56
2023/03/06 05:09:48;;;;;;;6.03;2.80;;;;;;;1.01;78.53;100523.38;7392281;19;20332;-56
2023/03/06 05:12:14;;;;;;;8.20;3.15;;;;;;;0.93;78.71;100526.34;7392744;19;20009;-59
2023/03/06 05:14:39;;;;;;;7.15;2.40;;;;;;;0.85;79.17;100528.47;7391708;19;20080;-58
2023/03/06 05:17:04;;;;;;;8.35;3.03;;;;;;;0.88;79.22;100528.34;7392411;19;19994;-57
2023/03/06 05:19:30;;;;;;;8.65;3.03;;;;;;;0.84;79.41;100526.78;7388136;19;19995;-57
2023/03/06 05:21:55;;;;;;;8.80;3.05;;;;;;;0.88;79.41;100523.09;7392054;19;20007;-58
2023/03/06 05:24:21;;;;;;;7.75;3.17;;;;;;;0.88;79.08;100515.25;7390003;19;20003;-57
2023/03/06 05:26:46;;;;;;;6.05;2.80;;;;;;;0.88;79.04;100510.03;7391585;19;20421;-55
2023/03/06 05:29:12;;;;;;;5.72;2.50;;;;;;;0.87;78.88;100510.97;7388222;19;20333;-56
2023/03/06 05:31:37;;;;;;;6.13;2.83;;;;;;;0.97;78.81;100513.97;7391557;19;20002;-57
2023/03/06 05:34:03;;;;;;;8.70;3.20;;;;;;;1.02;78.45;100510.25;7391173;19;20511;-58
2023/03/06 05:36:28;;;;;;;8.05;3.20;;;;;;;1.01;78.42;100508.53;7390579;19;20122;-57
2023/03/06 05:38:54;;;;;;;8.68;3.78;;;;;;;0.99;78.41;100501.69;7390052;19;20030;-57
2023/03/06 05:41:19;;;;;;;8.43;3.38;;;;;;;0.95;78.78;100503.59;7391163;19;20007;-57
2023/03/06 05:43:44;;;;;;;7.32;3.65;;;;;;;0.84;79.17;100498.00;7391181;19;20407;-56
2023/03/06 05:46:10;;;;;;;11.50;4.47;;;;;;;0.85;79.04;100503.16;7390466;19;19995;-57
2023/03/06 05:48:36;;;;;;;9.85;4.25;;;;;;;0.98;78.81;100498.22;7389935;19;20003;-57
2023/03/06 05:51:03;;;;;;;8.80;3.78;;;;;;;0.94;78.47;100494.06;7391527;19;19999;-57
2023/03/06 05:53:29;;;;;;;8.82;3.97;;;;;;;0.94;78.66;100491.44;7391426;19;20003;-57
2023/03/06 05:56:00;;;;;;;9.93;4.15;;;;;;;1.01;78.33;100498.06;7390776;19;20052;-56
2023/03/06 05:58:26;;;;;;;8.60;3.50;;;;;;;0.93;78.56;100497.56;7390024;19;20062;-57
2023/03/06 06:00:52;;;;;;;9.25;3.90;;;;;;;0.88;78.46;100499.56;7391028;19;19999;-56
2023/03/06 06:03:19;;;;;;;11.60;4.22;;;;;;;0.93;78.52;100500.19;7390782;19;20005;-57
2023/03/06 06:05:44;;;;;;;12.32;4.75;;;;;;;1.06;78.19;100508.34;7389853;19;20081;-56
2023/03/06 06:08:10;;;;;;;10.55;4.47;;;;;;;1.11;77.94;100503.72;7390004;19;20455;-56
2023/03/06 06:10:35;;;;;;;12.82;5.35;;;;;;;0.95;78.02;100508.00;7390602;19;19994;-57
2023/03/06 06:13:00;;;;;;;11.80;5.13;;;;;;;0.96;78.62;100505.28;7388709;19;20023;-57
2023/03/06 06:15:27;;;;;;;12.02;5.25;;;;;;;1.01;78.39;100499.84;7389802;19;20507;-56
2023/03/06 06:17:54;;;;;;;11.52;5.18;;;;;;;1.04;78.20;100503.16;7387863;19;20006;-55
2023/03/06 06:20:20;;;;;;;13.80;5.65;;;;;;;1.03;78.64;100498.00;7398520;19;20034;-55
2023/03/06 06:22:46;;;;;;;13.75;6.22;;;;;;;1.10;77.73;100500.28;7398318;19;20003;-56
2023/03/06 06:25:12;;;;;;;13.43;5.43;;;;;;;1.00;78.45;100490.31;7397176;19;20019;-56
2023/03/06 06:27:37;;;;;;;13.32;6.35;;;;;;;0.95;78.70;100494.91;7397164;19;20006;-56
2023/03/06 06:30:04;;;;;;;13.43;6.07;;;;;;;0.91;78.88;100500.28;7395432;19;20011;-57
2023/03/06 06:32:30;;;;;;;12.85;6.53;;;;;;;1.03;78.34;100503.25;7397476;19;20002;-58
2023/03/06 06:34:55;;;;;;;15.15;6.03;;;;;;;0.99;78.40;100504.31;7396857;19;20032;-58
2023/03/06 06:37:21;;;;;;;13.32;6.28;;;;;;;1.00;78.33;100504.22;7396885;19;20399;-57
2023/03/06 06:39:46;;;;;;;13.43;6.57;;;;;;;0.92;78.78;100511.59;7395746;19;19998;-58
2023/03/06 06:42:12;;;;;;;12.27;6.20;;;;;;;1.08;78.16;100506.47;7397328;19;20018;-59
2023/03/06 06:44:37;;;;;;;13.27;6.53;;;;;;;1.02;78.36;100512.03;7396379;19;20317;-59
2023/03/06 06:47:05;;;;;;;14.60;6.38;;;;;;;1.05;78.09;100512.72;7394565;19;19998;-58
2023/03/06 06:49:30;;;;;;;15.60;6.65;;;;;;;1.17;78.05;100516.53;7393882;19;19994;-56
2023/03/06 06:51:56;;;;;;;14.05;6.88;;;;;;;1.07;78.01;100525.72;7395029;19;19997;-58
2023/03/06 06:54:22;;;;;;;13.75;7.05;;;;;;;1.05;77.98;100522.31;7396539;19;20009;-58
2023/03/06 06:56:47;;;;;;;14.38;6.65;;;;;;;0.92;78.50;100522.03;7395968;19;20494;-57
2023/03/06 06:59:13;;;;;;;13.52;7.03;;;;;;;1.02;78.53;100518.09;7393329;19;19995;-58
2023/03/06 07:01:38;;;;;;;12.45;6.30;;;;;;;0.95;78.72;100524.53;7397277;19;20106;-58
2023/03/06 07:04:04;;;;;;;15.20;6.65;;;;;;;0.96;78.52;100515.75;7396334;19;20422;-56
2023/03/06 07:06:29;;;;;;;15.35;6.97;;;;;;;0.74;78.99;100521.09;7396412;19;20074;-55
2023/03/06 07:08:55;;;;;;;14.32;6.97;;;;;;;0.59;79.85;100525.25;7394237;19;20451;-56
2023/03/06 07:11:21;;;;;;;15.50;7.13;;;;;;;0.60;79.76;100516.50;7396846;19;19994;-56
2023/03/06 07:13:46;;;;;;;16.83;7.30;;;;;;;0.67;79.38;100517.06;7396287;19;20001;-57
2023/03/06 07:16:12;;;;;;;15.75;7.93;;;;;;;0.73;78.83;100510.72;7395370;19;20513;-57
2023/03/06 07:18:38;;;;;;;16.48;7.28;;;;;;;0.74;79.00;100517.63;7392839;19;20459;-58
2023/03/06 07:21:04;;;;;;;15.65;7.70;;;;;;;0.87;78.58;100521.41;7393607;19;20062;-57
2023/03/06 07:23:30;;;;;;;13.68;7.05;;;;;;;0.85;78.54;100515.38;7396203;19;20050;-58
2023/03/06 07:26:03;;;;;;;14.10;7.25;;;;;;;0.88;78.58;100525.72;7395711;19;20350;-58
2023/03/06 07:28:28;;;;;;;15.32;7.97;;;;;;;0.80;79.08;100522.59;7393704;19;20434;-57
2023/03/06 07:30:54;;;;;;;15.98;7.70;;;;;;;0.87;78.31;100522.25;7393212;19;20003;-57
2023/03/06 07:33:20;;;;;;;16.45;7.68;;;;;;;0.86;78.48;100515.34;7396634;19;20006;-57
2023/03/06 07:35:46;;;;;;;15.40;8.15;;;;;;;0.96;78.01;100514.91;7394756;19;20413;-56
2023/03/06 07:38:13;;;;;;;14.70;7.38;;;;;;;0.98;77.51;100516.53;7394467;19;19998;-57
2023/03/06 07:40:39;;;;;;;15.05;8.00;;;;;;;0.98;78.07;100524.38;7395165;19;19995;-56
2023/03/06 07:43:05;;;;;;;15.07;7.10;;;;;;;1.08;77.60;100519.56;7395285;19;20470;-57
2023/03/06 07:45:31;;;;;;;16.38;7.35;;;;;;;1.16;77.40;100520.91;7394666;19;20434;-56
2023/03/06 07:47:56;;;;;;;13.63;6.45;;;;;;;1.14;77.25;100519.28;7393964;19;20005;-57
2023/03/06 07:50:22;;;;;;;13.27;6.75;;;;;;;1.15;77.10;100510.50;7394941;19;20498;-58
2023/03/06 07:52:49;;;;;;;15.13;7.43;;;;;;;1.22;76.89;100514.53;7394628;19;20025;-57
2023/03/06 07:55:14;;;;;;;15.73;7.60;;;;;;;1.16;76.91;100522.66;7394116;19;20001;-59
2023/03/06 07:57:40;;;;;;;13.82;7.07;;;;;;;0.97;77.42;100511.38;7394306;19;20006;-60
2023/03/06 08:00:11;;;;;;;15.48;7.55;;;;;;;0.88;78.30;100523.94;7395097;19;20066;-58
2023/03/06 08:02:37;;;;;;;15.23;7.13;;;;;;;0.95;77.87;100518.44;7394427;19;20002;-59
2023/03/06 08:05:03;;;;;;;16.48;7.63;;;;;;;1.09;77.49;100523.88;7393769;19;20002;-58
2023/03/06 08:07:29;;;;;;;15.13;7.15;;;;;;;1.13;77.32;100528.91;7393357;19;20069;-57
2023/03/06 08:09:54;;;;;;;14.32;6.45;;;;;;;1.09;77.28;100527.34;7394202;19;20455;-57
2023/03/06 08:12:19;;;;;;;13.70;6.78;;;;;;;1.01;77.18;100526.84;7394345;19;20375;-58
2023/03/06 08:14:45;;;;;;;15.98;7.03;;;;;;;1.05;77.24;100520.56;7393594;19;20003;-59
2023/03/06 08:17:10;;;;;;;14.98;6.65;;;;;;;0.95;77.50;100521.91;7394003;19;20093;-58
2023/03/06 08:19:36;;;;;;;13.35;6.45;;;;;;;0.86;78.02;100532.78;7391315;19;20007;-56
2023/03/06 08:22:04;;;;;;;12.10;5.93;;;;;;;0.88;78.06;100534.41;7393854;19;20016;-57
2023/03/06 08:24:29;;;;;;;14.52;7.03;;;;;;;0.87;78.01;100535.34;7393496;19;20006;-57
2023/03/06 08:26:55;;;;;;;12.93;6.63;;;;;;;1.10;77.48;100544.75;7393620;19;20010;-57
2023/03/06 08:29:20;;;;;;;15.60;6.82;;;;;;;1.29;76.75;100549.13;7391103;19;20030;-57
2023/03/06 08:31:47;;;;;;;14.80;6.82;;;;;;;1.49;76.08;100543.78;7393606;19;20005;-58
2023/03/06 08:34:18;;;;;;;13.85;6.20;;;;;;;1.61;75.34;100545.81;7392637;19;20594;-56
2023/03/06 08:36:44;;;;;;;12.50;5.18;;;;;;;1.60;75.71;100545.91;7392760;19;20011;-57
2023/03/06 08:39:10;;;;;;;13.50;5.85;;;;;;;1.58;75.58;100551.19;7391056;19;19991;-56
2023/03/06 08:41:43;;;;;;;13.25;5.20;;;;;;;1.52;75.75;100548.88;7391352;19;19999;-56
2023/03/06 08:44:09;;;;;;;13.90;5.70;;;;;;;1.54;75.90;100540.94;7392100;19;20014;-56
2023/03/06 08:46:35;;;;;;;12.25;4.97;;;;;;;1.53;76.08;100557.56;7392827;19;19998;-56
2023/03/06 08:49:01;;;;;;;11.70;4.95;;;;;;;1.57;75.81;100557.34;7391937;19;20199;-56
2023/03/06 08:51:27;;;;;;;11.95;4.57;;;;;;;1.66;75.65;100553.44;7393265;19;20442;-56
2023/03/06 08:53:53;;;;;;;11.65;5.15;;;;;;;1.69;75.48;100548.06;7393262;19;20001;-56
2023/03/06 08:56:24;;;;;;;12.40;4.90;;;;;;;1.68;75.58;100549.00;7392751;19;20003;-56
2023/03/06 08:58:50;;;;;;;13.25;4.90;;;;;;;1.74;75.42;100548.69;7390838;19;19998;-56
2023/03/06 09:01:19;;;;;;;11.75;5.60;;;;;;;1.82;75.12;100553.56;7391460;19;20324;-56
2023/03/06 09:03:45;;;;;;;12.55;5.53;;;;;;;1.70;75.36;100559.38;7392693;19;20079;-56
2023/03/06 09:06:11;;;;;;;14.52;5.00;;;;;;;1.61;75.87;100561.50;7391241;19;19995;-56
2023/03/06 09:08:37;;;;;;;12.30;4.93;;;;;;;1.71;75.57;100561.09;7391082;19;20002;-56
2023/03/06 09:11:03;;;;;;;10.82;4.85;;;;;;;1.74;75.86;100553.06;7391723;19;19990;-57
2023/03/06 09:13:28;;;;;;;9.77;4.10;;;;;;;1.74;75.36;100566.16;7391941;19;20003;-56
2023/03/06 09:15:53;;;;;;;8.10;3.65;;;;;;;1.71;75.36;100561.09;7391154;19;20347;-56
2023/03/06 09:18:19;;;;;;;11.85;3.45;;;;;;;1.70;75.58;100564.59;7391032;19;20325;-56
2023/03/06 09:20:44;;;;;;;9.35;2.97;;;;;;;1.80;75.01;100566.72;7389591;19;20620;-54
2023/03/06 09:23:19;;;;;;;8.48;3.28;;;;;;;1.81;74.62;100570.19;7389393;19;20019;-57
2023/03/06 09:25:45;;;;;;;7.93;3.20;;;;;;;1.80;74.64;100578.97;7389711;19;19998;-56
2023/03/06 09:28:10;;;;;;;10.23;4.05;;;;;;;1.81;75.11;100578.03;7390663;19;19995;-58
2023/03/06 09:30:42;;;;;;;9.15;3.72;;;;;;;1.79;75.11;100574.66;7389990;19;20463;-56
2023/03/06 09:33:07;;;;;;;8.35;3.00;;;;;;;1.71;75.16;100574.19;7391599;19;20370;-58
2023/03/06 09:35:33;;;;;;;8.68;3.65;;;;;;;1.61;75.42;100577.22;7390586;19;20002;-56
2023/03/06 09:37:58;;;;;;;11.32;4.10;;;;;;;1.66;75.65;100575.25;7390562;19;20099;-57
2023/03/06 09:40:59;;;;;;;8.10;3.10;;;;;;;1.71;75.14;100575.03;7391404;19;20330;-58
2023/03/06 09:43:36;;;;;;;8.52;3.08;;;;;;;1.73;75.54;100580.19;7391540;19;20032;-57
2023/03/06 09:46:15;;;;;;;9.63;3.45;;;;;;;1.70;75.00;100575.09;7391098;19;20003;-56
2023/03/06 09:49:15;;;;;;;8.98;3.15;;;;;;;1.74;75.40;100579.25;7388684;19;20006;-57
2023/03/06 09:51:59;;;;;;;11.35;3.80;;;;;;;1.82;75.47;100574.50;7391236;19;20035;-57
2023/03/06 09:55:12;;;;;;;8.93;3.63;;;;;;;2.04;75.40;100579.53;7387980;19;19999;-57
2023/03/06 09:58:16;;;;;;;7.20;3.28;;;;;;;2.03;74.49;100575.22;7386413;19;20321;-58
2023/03/06 10:00:58;;;;;;;8.25;3.45;;;;;;;1.94;74.30;100571.28;7386524;19;20109;-56
2023/03/06 10:03:34;;;;;;;11.07;3.40;;;;;;;1.78;75.03;100568.56;7390663;19;19999;-57
2023/03/06 10:06:31;;;;;;;8.20;3.30;;;;;;;1.81;74.92;100571.03;7388232;19;20032;-56
2023/03/06 10:09:09;;;;;;;8.20;3.05;;;;;;;1.94;73.84;100578.31;7387886;19;20427;-56
2023/03/06 10:11:46;;;;;;;9.27;3.17;;;;;;;1.91;74.46;100574.06;7390849;19;19999;-56
2023/03/06 10:14:32;;;;;;;8.45;2.90;;;;;;;1.96;73.72;100563.34;7390679;19;19995;-56
2023/03/06 10:16:57;;;;;;;9.45;3.30;;;;;;;1.97;73.95;100560.66;7389410;19;20467;-57
2023/03/06 10:19:31;;;;;;;9.60;3.63;;;;;;;1.96;74.08;100563.34;7388937;19;20003;-56
2023/03/06 10:22:03;;;;;;;9.73;3.85;;;;;;;2.00;73.84;100562.25;7390177;19;20002;-57
2023/03/06 10:24:44;;;;;;;9.73;3.78;;;;;;;2.21;72.85;100561.22;7390106;19;20111;-56
2023/03/06 10:27:14;;;;;;;10.68;4.43;;;;;;;2.31;72.30;100562.44;7389707;19;20499;-57
2023/03/06 10:30:14;;;;;;;14.10;4.22;;;;;;;2.45;70.84;100558.25;7388482;19;20443;-54
2023/03/06 10:32:42;;;;;;;9.48;4.97;;;;;;;2.55;71.02;100557.72;7391845;19;20003;-57
2023/03/06 10:35:24;;;;;;;12.75;6.60;;;;;;;2.76;70.51;100560.97;7389990;19;20006;-57
2023/03/06 10:37:50;;;;;;;15.55;8.30;;;;;;;2.67;70.70;100563.25;7387542;19;20011;-56
2023/03/06 10:40:23;;;;;;;16.48;9.27;;;;;;;2.52;71.44;100563.09;7388492;19;20019;-56
2023/03/06 10:42:49;;;;;;;18.50;9.90;;;;;;;2.61;71.63;100564.38;7390178;19;20007;-58
2023/03/06 10:45:16;;;;;;;27.45;14.50;;;;;;;2.87;70.27;100555.16;7389777;19;20007;-56
2023/03/06 10:47:43;;;;;;;30.02;14.63;;;;;;;3.02;70.03;100554.34;7389481;19;20014;-56
2023/03/06 10:50:23;;;;;;;30.40;17.10;;;;;;;2.80;70.28;100559.88;7389457;19;20013;-57
2023/03/06 10:52:59;;;;;;;34.75;17.05;;;;;;;2.84;70.42;100563.19;7389707;19;19999;-56
2023/03/06 10:55:28;;;;;;;35.75;18.77;;;;;;;2.88;70.46;100551.59;7389500;19;20007;-56
2023/03/06 10:57:54;;;;;;;35.95;18.50;;;;;;;3.00;70.49;100553.59;7389046;19;20007;-56
2023/03/06 11:00:27;;;;;;;34.92;18.52;;;;;;;2.86;70.36;100553.47;7389904;19;20026;-57
2023/03/06 11:03:25;;;;;;;31.87;17.13;;;;;;;2.63;71.58;100563.41;7389697;19;20357;-57
2023/03/06 11:06:36;;;;;;;35.40;18.05;;;;;;;2.40;72.14;100558.50;7392432;19;20255;-56
2023/03/06 11:09:15;;;;;;;36.42;18.77;;;;;;;2.59;72.47;100561.88;7389947;19;20501;-56
2023/03/06 11:11:41;;;;;;;35.40;19.63;;;;;;;2.58;71.82;100552.31;7396548;19;20087;-57
2023/03/06 11:14:15;;;;;;;36.25;17.85;;;;;;;2.68;71.66;100559.69;7396301;19;19998;-56
2023/03/06 11:16:51;;;;;;;29.27;16.85;;;;;;;2.78;71.56;100560.91;7396161;19;20402;-56
2023/03/06 11:19:27;;;;;;;18.63;9.70;;;;;;;2.86;70.87;100548.22;7394237;19;19999;-55
2023/03/06 11:22:15;;;;;;;18.90;10.35;;;;;;;2.86;70.84;100558.72;7396107;19;20387;-55
2023/03/06 11:24:46;;;;;;;17.25;8.48;;;;;;;2.95;70.77;100547.72;7395845;19;20323;-55
2023/03/06 11:27:29;;;;;;;17.45;8.82;;;;;;;3.13;70.65;100551.97;7395728;19;20007;-55
2023/03/06 11:29:58;;;;;;;15.93;8.82;;;;;;;3.17;70.33;100547.41;7393630;19;20032;-54
2023/03/06 11:32:28;;;;;;;17.17;8.98;;;;;;;3.18;70.26;100551.72;7396050;19;20027;-55
2023/03/06 11:34:58;;;;;;;14.52;7.97;;;;;;;3.19;70.51;100548.19;7397806;19;19999;-56